Hopedale, MA

5:47 PM EST on December 06, 2016 (GMT -0500)
Bowdoin | | Change Station
Active Advisory: Special Statement

Elev 525 ft 42.15 °N, 71.55 °W | Updated 31 seconds ago

Clear
Clear
35.1 °F
Feels Like 35 °F
N
0.0
Wind Variable Wind from East

Today
High -- | Low -- °F
--% Chance of Precip.
Yesterday
High -- | Low -- °F
Precip. -- in
Pressure 30.06 in
Visibility 10.0 miles
Clouds Clear
Windchill 35 °F
Dew Point 27 °F
Humidity 73%
Rainfall 0.09 in
Snow Depth Not available.
7:00 AM 4:14 PM
Waxing Crescent, 46% visible
METAR KSFZ 062156Z AUTO 00000KT 10SM CLR 03/M03 A3000 RMK AO2 SLP180 T00331028
Pressure 30.06 in
Visibility 10.0 miles
Clouds Clear
Windchill 35 °F
Dew Point 27 °F
Humidity 73%
Rainfall 0.09 in
Snow Depth Not available.
7:00 AM 4:14 PM
Waxing Crescent, 46% visible
METAR KSFZ 062156Z AUTO 00000KT 10SM CLR 03/M03 A3000 RMK AO2 SLP180 T00331028

10-Day Weather Forecast

Almanac

Astronomy

Dec. 06, 2016 Rise Set
Actual Time
Civil Twilight
Nautical Twilight
Astronomical Twilight
Moon
Length of Visible Light
Length of Day
Tomorrow will be .
, % of the Moon is Illuminated

Today's Extremes

State Highs State Lows

Community

WunderPhotos

Upload Photos

1,956,042 photos uploaded!

WunderBlog® & News

Nearby

Air Quality

  Air Quality AQ Index Pollutant
Not available.

Snow Depth

Station Depth Elevation

Earthquake Activity

City Distance Mag. Time & Date
Minimum magnitude displayed is 2.5.

Coastal Water Temperatures

Place Temperature

Stations

Nearby Weather Stations

Station Location Temp. Windchill Dew Point Humidity Wind Precip. Elev Updated Type
                   

Watches & Warnings

Special Statement
Issued: 4:08 PM EST Dec. 6, 2016 – National Weather Service

... Light snow may lead to localized slippery spots for the morning
commute...

Light snow will develop across interior southern late tonight and
linger into the morning commute tomorrow. In areas of higher
terrain... this snow may lead to localized slippery conditions on
untreated Road and walkways.

Commuters are urged to stay tuned to the latest forecast and allow
for extra travel time.



408 PM EST Tue Dec 6 2016

... Light snow may lead to localized slippery spots for the morning
commute...

Light snow will develop across interior southern late tonight and
linger into the morning commute tomorrow. In areas of higher
terrain... this snow may lead to localized slippery conditions on
untreated Road and walkways.

Commuters are urged to stay tuned to the latest forecast and allow
for extra travel time.


408 PM EST Tue Dec 6 2016

... Light snow may lead to localized slippery spots for the morning
commute...

Light snow will develop across interior southern late tonight and
linger into the morning commute tomorrow. In areas of higher
terrain... this snow may lead to localized slippery conditions on
untreated Road and walkways.

Commuters are urged to stay tuned to the latest forecast and allow
for extra travel time.